Time;durP1;ratioP1;P1;durP2;ratioP2;P2;SDS_P1;SDS_P2;PMS_P1;PMS_P2;Temp;Humidity;BMP_temperature;BMP_pressure;BME280_temperature;BME280_humidity;BME280_pressure;Samples;Min_cycle;Max_cycle;Signal;HPM_P1;HPM_P2
2023/05/17 00:00:51;;;;;;;21.60;16.90;;;;;;;16.40;91.95;94429.28;5029763;28;20207;-68
2023/05/17 00:03:18;;;;;;;21.52;17.58;;;;;;;16.34;91.91;94415.09;5030324;28;20231;-67
2023/05/17 00:05:46;;;;;;;19.42;16.40;;;;;;;16.27;92.05;94419.84;5029150;28;20257;-66
2023/05/17 00:08:12;;;;;;;25.05;17.25;;;;;;;16.34;91.84;94422.81;5030027;28;20659;-67
2023/05/17 00:10:39;;;;;;;19.38;17.23;;;;;;;16.27;92.01;94437.78;5029687;28;20793;-67
2023/05/17 00:13:06;;;;;;;19.20;17.20;;;;;;;16.23;92.50;94438.91;5028291;28;20247;-66
2023/05/17 00:15:32;;;;;;;19.23;17.17;;;;;;;16.14;92.78;94439.50;5029073;28;20316;-67
2023/05/17 00:17:59;;;;;;;19.58;17.52;;;;;;;16.03;93.41;94436.81;5028428;28;20231;-66
2023/05/17 00:20:26;;;;;;;19.60;16.75;;;;;;;15.90;93.76;94425.72;5028747;28;20231;-67
2023/05/17 00:22:54;;;;;;;18.42;16.02;;;;;;;15.93;93.85;94428.91;5028708;28;20219;-67
2023/05/17 00:25:20;;;;;;;24.48;17.20;;;;;;;15.86;94.10;94435.31;5029463;28;20281;-67
2023/05/17 00:27:47;;;;;;;18.45;16.60;;;;;;;15.92;93.91;94436.69;5029530;28;20200;-68
2023/05/17 00:30:14;;;;;;;18.02;15.68;;;;;;;15.83;94.06;94430.44;5030275;28;20648;-68
2023/05/17 00:32:41;;;;;;;18.08;14.98;;;;;;;15.86;93.83;94429.38;5029171;28;20207;-67
2023/05/17 00:35:08;;;;;;;19.42;15.57;;;;;;;16.13;93.57;94432.72;5030151;28;20593;-68
2023/05/17 00:37:34;;;;;;;18.88;15.80;;;;;;;16.05;92.77;94422.19;5029771;28;20243;-66
2023/05/17 00:40:02;;;;;;;20.58;16.35;;;;;;;16.01;92.99;94423.28;5030288;28;20208;-68
2023/05/17 00:42:29;;;;;;;20.30;16.70;;;;;;;15.96;93.12;94421.03;5029180;28;20246;-66
2023/05/17 00:44:56;;;;;;;18.63;16.17;;;;;;;15.91;93.28;94423.06;5030195;28;20198;-69
2023/05/17 00:47:22;;;;;;;20.02;16.52;;;;;;;15.86;93.34;94440.44;5029796;28;20227;-68
2023/05/17 00:49:50;;;;;;;17.50;15.70;;;;;;;15.83;93.32;94435.56;5029882;28;20242;-68
2023/05/17 00:52:17;;;;;;;18.45;14.77;;;;;;;15.91;92.95;94428.19;5029176;28;20211;-69
2023/05/17 00:54:44;;;;;;;19.25;14.82;;;;;;;15.76;93.33;94436.03;5033853;28;20258;-67
2023/05/17 00:57:12;;;;;;;17.13;15.40;;;;;;;15.64;94.07;94430.75;5033009;28;20243;-68
2023/05/17 00:59:39;;;;;;;24.00;17.20;;;;;;;15.51;94.66;94440.13;5033710;28;20211;-69
2023/05/17 01:02:06;;;;;;;22.17;17.25;;;;;;;15.46;95.15;94444.69;5033721;28;20226;-68
2023/05/17 01:04:33;;;;;;;18.25;16.25;;;;;;;15.56;94.74;94448.38;5033689;28;20227;-66
2023/05/17 01:07:00;;;;;;;18.83;16.85;;;;;;;15.62;94.07;94447.97;5033440;28;20207;-68
2023/05/17 01:09:26;;;;;;;17.67;15.77;;;;;;;15.57;93.99;94439.75;5033151;28;20277;-68
2023/05/17 01:12:00;;;;;;;20.42;16.25;;;;;;;15.54;94.19;94439.09;5033378;28;20235;-67
2023/05/17 01:14:38;;;;;;;18.00;15.38;;;;;;;15.51;94.44;94442.66;5033398;28;20255;-68
2023/05/17 01:17:12;;;;;;;18.58;16.80;;;;;;;15.52;94.02;94441.75;5033027;28;20720;-67
2023/05/17 01:20:05;;;;;;;19.13;15.63;;;;;;;15.50;94.09;94438.47;5033003;28;20203;-68
2023/05/17 01:22:39;;;;;;;18.42;16.45;;;;;;;15.52;94.06;94434.06;5025219;28;20215;-67
2023/05/17 01:25:24;;;;;;;21.17;16.80;;;;;;;15.41;94.25;94435.66;5033346;28;20222;-67
2023/05/17 01:27:55;;;;;;;18.50;16.45;;;;;;;15.53;93.36;94437.44;5028430;28;20265;-68
2023/05/17 01:30:25;;;;;;;17.23;14.50;;;;;;;15.59;92.76;94432.78;5031437;28;20692;-67
2023/05/17 01:32:55;;;;;;;21.83;16.05;;;;;;;15.60;92.15;94433.59;5031292;28;20218;-65
2023/05/17 01:35:21;;;;;;;19.95;12.98;;;;;;;15.73;92.20;94431.09;5031184;28;20756;-67
2023/05/17 01:37:48;;;;;;;20.23;13.13;;;;;;;15.81;91.17;94431.44;5031004;28;20615;-67
2023/05/17 01:40:17;;;;;;;14.55;12.02;;;;;;;15.69;91.56;94434.78;5031365;28;20195;-66
2023/05/17 01:42:45;;;;;;;24.63;13.07;;;;;;;15.62;91.77;94437.72;5031118;28;20234;-67
2023/05/17 01:45:21;;;;;;;16.98;12.95;;;;;;;15.55;91.80;94438.19;5032456;28;20219;-67
2023/05/17 01:47:54;;;;;;;14.20;12.70;;;;;;;15.50;92.22;94442.75;5032790;28;20230;-67
2023/05/17 01:50:24;;;;;;;15.77;11.82;;;;;;;15.52;92.13;94451.19;5032630;28;20255;-67
2023/05/17 01:52:54;;;;;;;17.23;13.43;;;;;;;15.53;91.81;94452.81;5039761;28;20238;-67
2023/05/17 01:55:28;;;;;;;19.80;13.35;;;;;;;15.58;91.35;94436.28;5037302;28;20251;-67
2023/05/17 01:57:56;;;;;;;18.27;12.32;;;;;;;15.57;90.52;94441.50;5032561;28;20235;-66
2023/05/17 02:00:25;;;;;;;21.33;12.75;;;;;;;15.35;91.38;94439.41;5031994;28;20755;-67
2023/05/17 02:02:52;;;;;;;33.08;14.32;;;;;;;15.23;92.13;94435.06;5032527;28;20673;-67
2023/05/17 02:05:19;;;;;;;27.10;13.75;;;;;;;15.13;92.81;94444.19;5031171;28;20744;-68
2023/05/17 02:07:45;;;;;;;17.55;12.63;;;;;;;15.23;92.45;94435.88;5032595;28;20334;-68
2023/05/17 02:10:12;;;;;;;18.50;14.25;;;;;;;15.10;92.78;94432.41;5032069;28;20231;-67
2023/05/17 02:12:40;;;;;;;19.35;13.25;;;;;;;15.29;92.04;94432.94;5032181;28;20661;-68
2023/05/17 02:15:10;;;;;;;18.67;14.07;;;;;;;15.21;92.04;94435.16;5031954;28;20372;-67
2023/05/17 02:17:38;;;;;;;15.13;13.55;;;;;;;15.22;92.49;94430.84;5032540;28;20211;-66
2023/05/17 02:20:05;;;;;;;18.45;13.82;;;;;;;15.20;92.55;94430.94;5032370;28;20227;-67
2023/05/17 02:22:32;;;;;;;18.25;13.25;;;;;;;15.16;92.68;94428.66;5032158;28;20258;-65
2023/05/17 02:24:59;;;;;;;13.82;12.38;;;;;;;15.07;93.02;94424.13;5031852;28;20254;-67
2023/05/17 02:27:25;;;;;;;19.15;13.90;;;;;;;15.12;92.75;94427.19;5032255;28;20231;-66
2023/05/17 02:29:52;;;;;;;14.88;12.85;;;;;;;15.14;92.43;94425.38;5030997;28;20235;-67
2023/05/17 02:32:19;;;;;;;15.63;12.93;;;;;;;15.03;92.22;94418.38;5032496;28;20854;-68
2023/05/17 02:34:47;;;;;;;21.60;14.13;;;;;;;14.95;92.89;94426.50;5031183;28;20259;-67
2023/05/17 02:37:13;;;;;;;17.85;13.27;;;;;;;14.93;92.92;94420.66;5032225;28;20270;-67
2023/05/17 02:39:40;;;;;;;14.38;12.63;;;;;;;14.94;92.19;94414.63;5031922;28;20646;-67
2023/05/17 02:42:07;;;;;;;21.58;13.27;;;;;;;15.01;92.23;94420.19;5031536;28;20242;-67
2023/05/17 02:44:34;;;;;;;17.60;13.38;;;;;;;15.00;91.68;94427.97;5031209;28;20234;-67
2023/05/17 02:47:00;;;;;;;15.10;13.35;;;;;;;14.85;92.31;94430.50;5031864;28;20345;-67
2023/05/17 02:49:27;;;;;;;15.02;13.07;;;;;;;14.89;92.54;94436.28;5031833;28;20231;-68
2023/05/17 02:51:55;;;;;;;16.65;13.00;;;;;;;14.88;92.33;94440.56;5031773;28;20267;-67
2023/05/17 02:54:22;;;;;;;15.15;12.43;;;;;;;14.78;92.21;94444.59;5030528;28;20692;-67
2023/05/17 02:56:48;;;;;;;14.32;12.88;;;;;;;14.74;92.24;94448.25;5031123;28;20747;-68
2023/05/17 02:59:15;;;;;;;17.58;13.98;;;;;;;14.72;92.24;94457.75;5031042;28;20262;-66
2023/05/17 03:01:41;;;;;;;16.30;14.18;;;;;;;14.52;92.69;94458.94;5031520;28;20242;-67
2023/05/17 03:04:08;;;;;;;16.55;13.02;;;;;;;14.30;93.00;94464.44;5032372;28;20200;-68
2023/05/17 03:06:35;;;;;;;14.63;13.10;;;;;;;14.45;92.75;94472.97;5031608;28;20231;-67
2023/05/17 03:09:03;;;;;;;15.20;13.60;;;;;;;14.50;92.13;94480.38;5031619;28;20255;-67
2023/05/17 03:11:30;;;;;;;17.23;13.15;;;;;;;14.56;91.44;94469.81;5031145;28;20204;-67
2023/05/17 03:13:57;;;;;;;15.73;13.80;;;;;;;14.73;90.76;94476.47;5031882;28;20287;-68
2023/05/17 03:16:23;;;;;;;15.60;14.18;;;;;;;14.62;91.16;94484.75;5030635;28;20266;-68
2023/05/17 03:18:50;;;;;;;15.90;13.63;;;;;;;14.58;91.50;94483.31;5031390;28;20300;-67
2023/05/17 03:21:16;;;;;;;18.50;13.93;;;;;;;14.62;91.68;94492.44;5031111;28;20689;-68
2023/05/17 03:23:43;;;;;;;17.55;13.70;;;;;;;14.74;90.84;94484.06;5034311;28;20691;-67
2023/05/17 03:26:11;;;;;;;15.90;14.00;;;;;;;14.90;90.38;94483.97;5031061;28;20226;-68
2023/05/17 03:28:38;;;;;;;17.40;13.73;;;;;;;14.87;90.06;94482.41;5030733;28;20239;-66
2023/05/17 03:31:05;;;;;;;19.98;13.73;;;;;;;14.93;89.97;94476.94;5029203;28;20271;-67
2023/05/17 03:33:31;;;;;;;18.58;13.32;;;;;;;15.03;89.45;94478.97;5029519;28;20211;-67
2023/05/17 03:35:58;;;;;;;17.83;12.52;;;;;;;15.14;88.80;94474.81;5028482;28;20709;-67
2023/05/17 03:38:25;;;;;;;20.10;12.30;;;;;;;15.00;89.32;94461.22;5029609;28;20322;-66
2023/05/17 03:40:52;;;;;;;20.00;12.35;;;;;;;15.01;89.26;94461.13;5028588;28;20701;-67
2023/05/17 03:43:20;;;;;;;20.70;13.93;;;;;;;14.96;89.38;94463.97;5029315;28;20235;-66
2023/05/17 03:45:46;;;;;;;16.63;12.50;;;;;;;14.98;89.89;94461.31;5029802;28;20307;-67
2023/05/17 03:48:13;;;;;;;24.42;13.15;;;;;;;15.09;89.90;94469.19;5030761;28;20235;-68
2023/05/17 03:50:40;;;;;;;17.35;12.48;;;;;;;15.34;88.97;94472.81;5030602;28;20258;-68
2023/05/17 03:53:07;;;;;;;26.10;13.63;;;;;;;15.50;88.43;94471.75;5031082;28;20204;-67
2023/05/17 03:55:34;;;;;;;17.13;12.45;;;;;;;15.49;87.34;94474.41;5030643;28;20259;-69
2023/05/17 03:58:01;;;;;;;14.38;11.85;;;;;;;15.52;86.17;94477.59;5030742;28;20261;-67
2023/05/17 04:00:29;;;;;;;17.45;12.18;;;;;;;15.65;86.30;94477.69;5030551;28;20700;-68
2023/05/17 04:02:55;;;;;;;22.67;13.60;;;;;;;15.64;85.32;94489.66;5030912;28;20265;-68
2023/05/17 04:05:22;;;;;;;17.20;12.02;;;;;;;15.70;85.48;94485.91;5030042;28;20222;-68
2023/05/17 04:07:49;;;;;;;16.45;11.90;;;;;;;15.87;84.39;94492.53;5030792;28;20230;-68
2023/05/17 04:10:15;;;;;;;20.23;12.50;;;;;;;15.89;83.68;94491.50;5030108;28;20661;-67
2023/05/17 04:12:42;;;;;;;19.60;12.88;;;;;;;15.94;83.60;94498.91;5030473;28;20235;-68
2023/05/17 04:15:09;;;;;;;20.20;11.93;;;;;;;16.13;82.35;94498.56;5029941;28;20246;-67
2023/05/17 04:17:37;;;;;;;18.42;11.95;;;;;;;16.42;81.45;94487.25;5030712;28;20235;-67
2023/05/17 04:20:05;;;;;;;16.80;11.05;;;;;;;16.72;80.02;94494.69;5030360;28;20316;-67
2023/05/17 04:22:32;;;;;;;16.90;11.80;;;;;;;16.98;78.85;94488.63;5030912;28;20242;-67
2023/05/17 04:24:58;;;;;;;17.15;13.82;;;;;;;17.24;78.23;94478.34;5029434;28;20665;-68
2023/05/17 04:27:25;;;;;;;21.08;12.02;;;;;;;17.15;77.06;94489.22;5030321;28;20658;-68
2023/05/17 04:29:52;;;;;;;21.55;12.90;;;;;;;17.15;77.47;94494.38;5030092;28;20227;-67
2023/05/17 04:32:18;;;;;;;18.88;14.25;;;;;;;16.84;78.42;94499.00;5030706;28;20254;-68
2023/05/17 04:34:46;;;;;;;21.08;13.90;;;;;;;16.57;79.78;94499.06;5029604;28;20247;-68
2023/05/17 04:37:13;;;;;;;26.33;14.65;;;;;;;16.62;80.17;94493.63;5030520;28;20301;-67
2023/05/17 04:39:40;;;;;;;15.85;13.27;;;;;;;16.99;78.50;94490.28;5030412;28;20278;-67
2023/05/17 04:42:07;;;;;;;28.70;16.55;;;;;;;17.11;77.94;94487.78;5030219;28;20688;-68
2023/05/17 04:44:34;;;;;;;26.70;14.68;;;;;;;17.41;76.79;94493.41;5029487;28;20208;-68
2023/05/17 04:47:01;;;;;;;17.05;14.07;;;;;;;17.68;74.73;94488.94;5030481;28;20289;-68
2023/05/17 04:49:27;;;;;;;19.50;13.93;;;;;;;18.15;73.24;94495.00;5029818;28;20305;-69
2023/05/17 04:51:55;;;;;;;22.65;14.02;;;;;;;18.60;71.41;94493.44;5030500;28;20255;-68
2023/05/17 04:54:22;;;;;;;20.63;14.40;;;;;;;18.83;69.79;94488.31;5030206;28;20240;-68
2023/05/17 04:56:49;;;;;;;16.40;13.95;;;;;;;18.77;69.97;94481.91;5029905;28;20278;-68
2023/05/17 04:59:15;;;;;;;22.13;14.80;;;;;;;18.68;70.47;94483.41;5029031;28;20291;-68
2023/05/17 05:01:42;;;;;;;25.42;14.55;;;;;;;18.53;70.73;94481.94;5029188;28;20685;-68
2023/05/17 05:04:09;;;;;;;15.68;13.95;;;;;;;18.27;70.96;94491.56;5030067;28;20255;-68
2023/05/17 05:06:35;;;;;;;22.50;13.65;;;;;;;18.30;71.18;94486.22;5030115;28;20207;-68
2023/05/17 05:09:04;;;;;;;17.67;14.70;;;;;;;18.46;70.64;94492.78;5029578;28;20251;-67
2023/05/17 05:11:31;;;;;;;25.15;14.80;;;;;;;18.70;70.30;94493.59;5029774;28;20543;-68
2023/05/17 05:13:58;;;;;;;19.00;14.75;;;;;;;18.82;69.02;94492.66;5030053;28;20222;-67
2023/05/17 05:16:24;;;;;;;15.15;12.65;;;;;;;18.94;68.32;94507.19;5029490;28;20745;-68
2023/05/17 05:18:51;;;;;;;20.25;14.15;;;;;;;19.07;68.36;94503.69;5029899;28;20265;-68
2023/05/17 05:21:18;;;;;;;19.55;13.02;;;;;;;19.16;67.25;94500.44;5029828;28;20227;-68
2023/05/17 05:23:44;;;;;;;19.33;13.75;;;;;;;19.46;66.77;94500.66;5030115;28;20231;-68
2023/05/17 05:26:12;;;;;;;19.23;14.32;;;;;;;20.12;65.18;94501.47;5029432;28;20682;-68
2023/05/17 05:28:39;;;;;;;30.40;14.07;;;;;;;20.29;63.18;94503.53;5029708;28;20212;-67
2023/05/17 05:31:06;;;;;;;19.70;14.60;;;;;;;20.27;62.93;94508.03;5027145;28;20210;-69
2023/05/17 05:33:32;;;;;;;22.70;13.43;;;;;;;20.22;63.58;94501.59;5028197;28;20227;-67
2023/05/17 05:35:59;;;;;;;15.00;12.60;;;;;;;20.08;63.50;94504.44;5027160;28;20319;-67
2023/05/17 05:38:26;;;;;;;21.13;14.13;;;;;;;20.04;64.44;94498.72;5027659;28;20239;-67
2023/05/17 05:40:52;;;;;;;23.30;13.85;;;;;;;20.43;63.13;94493.91;5030092;28;20242;-69
2023/05/17 05:43:20;;;;;;;28.52;14.13;;;;;;;21.21;60.85;94501.22;5031235;28;20235;-68
2023/05/17 05:45:47;;;;;;;19.10;12.95;;;;;;;21.28;59.64;94499.75;5032136;28;20239;-68
2023/05/17 05:48:14;;;;;;;17.58;12.07;;;;;;;20.84;60.59;94499.06;5033331;28;20235;-68
2023/05/17 05:50:42;;;;;;;25.65;11.88;;;;;;;20.62;60.85;94500.00;5032475;28;20267;-68
2023/05/17 05:53:09;;;;;;;19.02;12.57;;;;;;;20.30;61.79;94505.16;5033329;28;20230;-68
2023/05/17 05:55:36;;;;;;;13.02;11.77;;;;;;;20.22;62.20;94497.25;5032721;28;20217;-69
2023/05/17 05:58:02;;;;;;;14.10;12.07;;;;;;;20.58;62.00;94500.38;5033198;28;20227;-70
2023/05/17 06:00:30;;;;;;;14.70;11.20;;;;;;;20.91;60.97;94501.97;5032477;28;20598;-67
2023/05/17 06:02:58;;;;;;;15.65;11.05;;;;;;;21.80;58.30;94498.69;5032799;28;20696;-69
2023/05/17 06:05:24;;;;;;;19.95;10.93;;;;;;;23.07;54.54;94502.00;5032657;28;20625;-68
2023/05/17 06:07:51;;;;;;;17.83;11.48;;;;;;;24.37;51.06;94508.78;5033088;28;20203;-69
2023/05/17 06:10:18;;;;;;;15.15;11.02;;;;;;;24.84;48.67;94500.72;5032002;28;20320;-69
2023/05/17 06:12:44;;;;;;;16.35;11.10;;;;;;;25.15;48.00;94502.91;5032349;28;20231;-69
2023/05/17 06:15:11;;;;;;;14.55;12.05;;;;;;;26.63;45.64;94509.31;5032839;28;20231;-69
2023/05/17 06:17:39;;;;;;;16.63;10.35;;;;;;;28.44;41.87;94499.88;5032568;28;20356;-69
2023/05/17 06:20:07;;;;;;;15.63;9.95;;;;;;;28.01;41.51;94509.06;5032791;28;20231;-70
2023/05/17 06:22:33;;;;;;;17.42;10.60;;;;;;;26.47;43.62;94507.53;5032366;28;20235;-68
2023/05/17 06:25:00;;;;;;;16.23;9.90;;;;;;;26.02;45.37;94502.66;5032339;28;20231;-69
2023/05/17 06:27:27;;;;;;;16.73;10.25;;;;;;;25.81;46.11;94500.50;5032484;28;20694;-69
2023/05/17 06:29:54;;;;;;;13.30;8.70;;;;;;;25.56;45.37;94515.16;5031577;28;20239;-70
2023/05/17 06:32:20;;;;;;;13.38;8.48;;;;;;;24.87;46.70;94513.41;5032390;28;20235;-69
2023/05/17 06:34:48;;;;;;;15.40;9.73;;;;;;;24.07;48.37;94517.69;5031887;28;20230;-69
2023/05/17 06:37:15;;;;;;;13.38;8.82;;;;;;;23.76;49.67;94520.75;5032427;28;20263;-71
2023/05/17 06:39:42;;;;;;;13.95;9.48;;;;;;;25.11;47.74;94514.59;5031614;28;20199;-68
2023/05/17 06:42:09;;;;;;;15.45;9.90;;;;;;;26.30;44.46;94511.88;5031932;28;20227;-70
2023/05/17 06:44:35;;;;;;;9.35;8.40;;;;;;;25.66;45.25;94502.88;5032052;28;20243;-70
2023/05/17 06:47:02;;;;;;;13.88;8.60;;;;;;;25.75;45.78;94506.31;5032419;28;20227;-68
2023/05/17 06:49:28;;;;;;;12.32;8.85;;;;;;;26.38;43.86;94508.47;5031867;28;20646;-69
2023/05/17 06:52:02;;;;;;;12.27;9.35;;;;;;;26.64;43.69;94503.13;5031391;28;20755;-70
2023/05/17 06:54:29;;;;;;;13.77;7.75;;;;;;;27.92;41.13;94504.88;5031826;28;20200;-68
2023/05/17 06:56:56;;;;;;;14.50;8.75;;;;;;;28.79;39.63;94508.91;5031475;28;20735;-69
2023/05/17 06:59:22;;;;;;;14.27;8.63;;;;;;;29.00;39.18;94501.25;5032108;28;20234;-69
2023/05/17 07:01:49;;;;;;;8.90;7.55;;;;;;;27.88;40.96;94516.66;5031489;28;20231;-71
2023/05/17 07:04:15;;;;;;;11.85;7.43;;;;;;;26.75;43.41;94508.00;5031837;28;20228;-66
2023/05/17 07:06:42;;;;;;;12.07;8.93;;;;;;;26.38;45.05;94514.50;5031509;28;20677;-69
2023/05/17 07:09:10;;;;;;;14.70;8.27;;;;;;;25.76;46.03;94515.75;5031608;28;20227;-69
2023/05/17 07:11:37;;;;;;;9.23;8.00;;;;;;;25.41;47.04;94519.31;5030905;28;20253;-70
2023/05/17 07:14:03;;;;;;;11.55;8.15;;;;;;;26.11;45.57;94514.75;5031291;28;20207;-70
2023/05/17 07:16:30;;;;;;;14.32;8.52;;;;;;;27.58;43.56;94515.63;5031368;28;20342;-70
2023/05/17 07:18:57;;;;;;;13.70;8.30;;;;;;;28.28;40.59;94521.69;5031550;28;20250;-70
2023/05/17 07:21:23;;;;;;;14.15;8.73;;;;;;;27.73;41.84;94527.78;5030607;28;20293;-71
2023/05/17 07:23:50;;;;;;;19.67;8.90;;;;;;;27.75;42.33;94520.59;5030765;28;20308;-71
2023/05/17 07:26:19;;;;;;;18.15;9.18;;;;;;;28.28;41.18;94521.69;5030282;28;20200;-70
2023/05/17 07:28:46;;;;;;;11.48;8.20;;;;;;;27.06;42.87;94516.81;5031279;28;20239;-73
2023/05/17 07:31:13;;;;;;;12.25;8.50;;;;;;;26.31;45.69;94521.31;5031064;28;20247;-70
2023/05/17 07:33:40;;;;;;;13.73;8.95;;;;;;;26.23;45.36;94526.47;5031117;28;20239;-70
2023/05/17 07:36:07;;;;;;;17.88;9.35;;;;;;;25.74;47.00;94530.72;5028191;28;20240;-72
2023/05/17 07:38:35;;;;;;;20.73;10.10;;;;;;;24.87;48.89;94531.59;5031454;28;20234;-71
2023/05/17 07:41:02;;;;;;;15.48;9.52;;;;;;;24.62;49.92;94537.56;5030457;28;20591;-72
2023/05/17 07:43:30;;;;;;;18.30;9.27;;;;;;;23.90;51.74;94530.63;5030881;28;20199;-71
2023/05/17 07:45:57;;;;;;;13.02;9.15;;;;;;;23.83;53.04;94529.56;5029949;28;20639;-72
2023/05/17 07:48:24;;;;;;;16.25;9.73;;;;;;;23.86;52.55;94540.50;5027576;28;20231;-72
2023/05/17 07:50:50;;;;;;;15.23;9.77;;;;;;;23.92;53.34;94524.34;5030882;28;20250;-72
2023/05/17 07:53:17;;;;;;;20.50;10.88;;;;;;;23.88;52.87;94524.78;5031688;28;20306;-72
2023/05/17 07:55:44;;;;;;;19.15;11.80;;;;;;;23.89;52.59;94519.44;5031053;28;20686;-70
2023/05/17 07:58:11;;;;;;;15.02;10.88;;;;;;;23.91;52.51;94521.91;5030982;28;20285;-71
2023/05/17 08:00:39;;;;;;;11.95;10.60;;;;;;;24.04;52.27;94532.72;5031002;28;20218;-71
2023/05/17 08:03:07;;;;;;;21.58;10.75;;;;;;;23.52;53.79;94532.44;5030456;28;20207;-73
2023/05/17 08:05:34;;;;;;;15.80;11.43;;;;;;;23.81;53.16;94526.31;5030688;28;20207;-75
2023/05/17 08:08:01;;;;;;;13.65;10.75;;;;;;;24.66;51.67;94534.53;5030741;28;20196;-69
2023/05/17 08:10:27;;;;;;;16.02;10.85;;;;;;;24.25;51.84;94524.72;5030394;28;20227;-73
2023/05/17 08:12:54;;;;;;;14.10;10.57;;;;;;;23.92;52.57;94529.53;5031063;28;20231;-72
2023/05/17 08:15:21;;;;;;;13.25;9.82;;;;;;;24.09;51.92;94525.34;5029731;28;20291;-72
2023/05/17 08:17:49;;;;;;;13.50;9.82;;;;;;;24.35;51.51;94521.09;5030824;28;20270;-74
2023/05/17 08:20:16;;;;;;;16.92;10.18;;;;;;;24.14;52.19;94525.72;5030599;28;20232;-71
2023/05/17 08:22:43;;;;;;;13.70;8.95;;;;;;;23.98;52.26;94517.78;5030566;28;20231;-71
2023/05/17 08:25:10;;;;;;;17.85;10.57;;;;;;;24.56;51.07;94525.16;5030682;28;20235;-72
2023/05/17 08:27:37;;;;;;;16.67;10.68;;;;;;;24.29;51.51;94519.06;5028253;28;20209;-73
2023/05/17 08:30:05;;;;;;;21.20;10.77;;;;;;;24.46;51.97;94514.06;4984815;28;20685;-69
2023/05/17 08:32:32;;;;;;;17.25;10.75;;;;;;;24.35;51.75;94515.91;4980677;28;20875;-70
2023/05/17 08:35:00;;;;;;;16.98;11.50;;;;;;;24.78;51.46;94516.91;5006374;28;20684;-70
2023/05/17 08:37:26;;;;;;;21.10;11.52;;;;;;;25.30;49.84;94517.78;5009637;28;20338;-68
2023/05/17 08:39:53;;;;;;;16.92;10.77;;;;;;;25.54;48.57;94518.88;4993815;28;20694;-70
2023/05/17 08:42:24;;;;;;;14.55;10.75;;;;;;;24.93;50.39;94525.81;5009629;28;20254;-70
2023/05/17 08:44:50;;;;;;;15.43;11.35;;;;;;;24.73;50.71;94524.34;5010328;28;20211;-67
2023/05/17 08:47:24;;;;;;;17.85;10.90;;;;;;;24.29;52.19;94528.66;5010711;28;20284;-69
2023/05/17 08:49:52;;;;;;;16.45;11.32;;;;;;;24.27;52.69;94536.59;5010404;28;20211;-68
2023/05/17 08:52:21;;;;;;;20.45;9.73;;;;;;;23.92;51.95;94523.53;5008771;28;21896;-69
2023/05/17 08:54:48;;;;;;;18.52;9.05;;;;;;;24.65;51.40;94516.50;5010143;28;20351;-69
2023/05/17 08:57:16;;;;;;;20.27;9.93;;;;;;;25.51;49.30;94509.59;5008543;28;20318;-65
2023/05/17 08:59:46;;;;;;;19.50;10.65;;;;;;;25.84;47.78;94509.78;5008864;28;20680;-68
2023/05/17 09:02:14;;;;;;;15.38;8.88;;;;;;;25.68;48.39;94510.53;5008674;28;20296;-66
2023/05/17 09:04:41;;;;;;;14.05;9.35;;;;;;;24.75;50.87;94512.81;5010112;28;20299;-72
2023/05/17 09:07:08;;;;;;;12.63;8.25;;;;;;;23.59;52.76;94520.53;4996750;28;20196;-70
2023/05/17 09:09:36;;;;;;;18.27;10.95;;;;;;;22.51;56.70;94517.47;5002992;28;20730;-70
2023/05/17 09:12:04;;;;;;;16.52;9.82;;;;;;;22.32;57.49;94520.03;5006715;28;20322;-67
2023/05/17 09:14:34;;;;;;;16.20;10.32;;;;;;;22.32;58.65;94515.66;5007852;28;20204;-68
2023/05/17 09:17:01;;;;;;;19.55;9.38;;;;;;;22.22;57.73;94496.75;5010874;28;20223;-65
2023/05/17 09:19:30;;;;;;;17.25;10.63;;;;;;;22.25;58.58;94499.06;5012178;28;20294;-67
2023/05/17 09:22:01;;;;;;;19.52;9.75;;;;;;;22.42;58.65;94489.78;5012044;28;21208;-70
2023/05/17 09:24:29;;;;;;;21.63;10.80;;;;;;;22.63;58.23;94494.81;5013904;28;20765;-67
2023/05/17 09:27:03;;;;;;;18.50;10.85;;;;;;;22.70;57.78;94493.31;5013383;28;20288;-69
2023/05/17 09:29:32;;;;;;;19.48;10.52;;;;;;;22.24;58.86;94496.59;5009430;28;20258;-69
2023/05/17 09:32:12;;;;;;;19.90;9.88;;;;;;;22.28;59.09;94498.78;5010407;28;20203;-68
2023/05/17 09:34:39;;;;;;;23.50;11.00;;;;;;;22.34;59.26;94505.19;5008318;28;20231;-70
2023/05/17 09:37:07;;;;;;;19.52;10.93;;;;;;;22.15;59.31;94498.22;5010297;28;20723;-67
2023/05/17 09:39:36;;;;;;;17.60;10.18;;;;;;;22.09;59.16;94493.59;5010392;28;20207;-69
2023/05/17 09:42:05;;;;;;;23.38;10.43;;;;;;;22.06;59.00;94489.50;5012897;28;20211;-69
2023/05/17 09:44:32;;;;;;;17.40;9.70;;;;;;;22.40;58.83;94487.34;5012181;28;20208;-71
2023/05/17 09:46:59;;;;;;;13.77;10.52;;;;;;;22.97;57.24;94488.25;5014377;28;20210;-69
2023/05/17 09:49:27;;;;;;;15.68;9.32;;;;;;;22.48;57.90;94507.38;5011944;28;20298;-69
2023/05/17 09:51:53;;;;;;;17.27;10.00;;;;;;;21.68;60.52;94504.91;5013461;28;20685;-68
2023/05/17 09:54:20;;;;;;;18.27;8.98;;;;;;;21.72;61.35;94498.53;5012831;28;21033;-68
2023/05/17 09:56:53;;;;;;;11.98;9.05;;;;;;;21.98;59.99;94488.53;5013113;28;20286;-70
2023/05/17 09:59:23;;;;;;;13.95;8.98;;;;;;;22.16;59.50;94492.09;5012668;28;20291;-68
2023/05/17 10:01:50;;;;;;;11.93;8.65;;;;;;;21.93;59.69;94494.09;5011976;28;20750;-68
2023/05/17 10:04:22;;;;;;;13.95;9.00;;;;;;;21.98;59.83;94491.91;5012519;28;20200;-65
2023/05/17 10:06:50;;;;;;;19.95;8.48;;;;;;;22.21;59.19;94492.53;5011992;28;20274;-69
2023/05/17 10:09:21;;;;;;;23.33;9.50;;;;;;;22.19;59.07;94478.91;5011300;28;20318;-65
2023/05/17 10:11:48;;;;;;;14.60;7.88;;;;;;;21.92;59.37;94476.94;5012341;28;20322;-70
2023/05/17 10:14:21;;;;;;;15.35;9.25;;;;;;;21.76;60.65;94475.81;5012778;28;20295;-67
2023/05/17 10:16:49;;;;;;;18.45;8.23;;;;;;;21.55;60.72;94474.09;5013012;28;20211;-70
2023/05/17 10:19:18;;;;;;;12.02;7.80;;;;;;;21.43;61.65;94464.84;5011557;28;20228;-70
2023/05/17 10:21:47;;;;;;;15.40;7.95;;;;;;;21.24;61.72;94465.59;5012081;28;20208;-64
2023/05/17 10:24:15;;;;;;;17.10;8.30;;;;;;;21.21;61.81;94470.19;5012681;28;20305;-65
2023/05/17 10:26:42;;;;;;;13.60;7.60;;;;;;;20.95;61.82;94455.09;5011239;28;20655;-70
2023/05/17 10:29:09;;;;;;;13.20;6.85;;;;;;;20.92;61.67;94457.13;5012048;28;20407;-68
2023/05/17 10:31:36;;;;;;;14.20;7.10;;;;;;;20.58;62.53;94449.56;5011696;28;20227;-69
2023/05/17 10:34:05;;;;;;;18.05;7.35;;;;;;;20.41;62.47;94436.44;5012135;28;20254;-67
2023/05/17 10:36:33;;;;;;;10.98;7.20;;;;;;;20.26;63.05;94436.72;5012727;28;20265;-70
2023/05/17 10:39:00;;;;;;;17.20;7.60;;;;;;;20.22;63.66;94430.16;5012051;28;20334;-64
2023/05/17 10:41:31;;;;;;;13.02;6.80;;;;;;;20.11;63.83;94406.97;5011898;28;20212;-67
2023/05/17 10:43:59;;;;;;;14.30;7.65;;;;;;;20.18;64.51;94400.38;5011459;28;20634;-68
2023/05/17 10:46:26;;;;;;;9.38;6.68;;;;;;;20.18;63.98;94391.84;5012176;28;20607;-66
2023/05/17 10:48:54;;;;;;;16.70;6.65;;;;;;;20.07;64.06;94381.56;5011274;28;20203;-66
2023/05/17 10:51:24;;;;;;;15.23;7.30;;;;;;;20.02;64.93;94358.75;5011703;28;20585;-67
2023/05/17 10:54:10;;;;;;;14.43;7.72;;;;;;;20.11;64.52;94364.91;5012256;28;20242;-69
2023/05/17 10:56:40;;;;;;;24.15;8.43;;;;;;;20.22;64.70;94360.50;5011635;28;20309;-66
2023/05/17 10:59:21;;;;;;;10.23;7.07;;;;;;;20.20;64.41;94353.81;5011227;28;20232;-67
2023/05/17 11:01:51;;;;;;;14.02;7.38;;;;;;;20.21;64.11;94345.16;5010433;28;20724;-66
2023/05/17 11:04:24;;;;;;;8.68;7.88;;;;;;;20.43;64.24;94351.94;5012015;28;20203;-69
2023/05/17 11:06:54;;;;;;;12.15;7.10;;;;;;;20.55;64.09;94353.50;5011974;28;20882;-71
2023/05/17 11:09:23;;;;;;;15.80;7.78;;;;;;;20.70;64.13;94350.47;5011774;28;20227;-67
2023/05/17 11:12:07;;;;;;;15.55;8.00;;;;;;;20.48;63.10;94352.41;5010988;28;20208;-69
2023/05/17 11:14:47;;;;;;;15.93;8.30;;;;;;;20.75;63.14;94360.41;5011721;28;20755;-65
2023/05/17 11:17:14;;;;;;;15.70;7.15;;;;;;;20.83;61.01;94365.72;5010505;28;20315;-67
2023/05/17 11:19:49;;;;;;;9.27;5.82;;;;;;;20.90;60.68;94373.78;5011523;28;20210;-69
2023/05/17 11:22:17;;;;;;;18.08;6.75;;;;;;;21.05;61.29;94391.34;5013110;28;20215;-65